createdAt,value
2023-02-02T00:02:20.296Z,3.36
2023-02-02T00:04:47.854Z,3.29
2023-02-02T00:07:15.106Z,3.22
2023-02-02T00:09:42.508Z,3.41
2023-02-02T00:12:10.296Z,3.41
2023-02-02T00:14:37.608Z,3.34
2023-02-02T00:17:05.020Z,3.41
2023-02-02T00:19:33.447Z,3.55
2023-02-02T00:22:00.703Z,3.56
2023-02-02T00:24:28.211Z,3.47
2023-02-02T00:26:56.836Z,3.50
2023-02-02T00:29:27.839Z,3.59
2023-02-02T00:31:55.173Z,3.53
2023-02-02T00:34:23.082Z,3.55
2023-02-02T00:36:50.659Z,3.51
2023-02-02T00:39:20.513Z,3.50
2023-02-02T00:41:48.447Z,3.57
2023-02-02T00:44:34.140Z,3.62
2023-02-02T00:47:01.715Z,3.67
2023-02-02T00:49:28.952Z,3.64
2023-02-02T00:51:56.148Z,3.78
2023-02-02T00:54:23.626Z,3.73
2023-02-02T00:56:50.823Z,3.74
2023-02-02T00:59:17.995Z,3.80
2023-02-02T01:01:46.170Z,3.76
2023-02-02T01:04:13.427Z,3.75
2023-02-02T01:06:40.634Z,3.83
2023-02-02T01:09:08.978Z,3.81
2023-02-02T01:11:36.719Z,3.68
2023-02-02T01:14:04.069Z,3.71
2023-02-02T01:16:31.628Z,3.74
2023-02-02T01:18:58.864Z,3.66
2023-02-02T01:21:26.147Z,3.60
2023-02-02T01:23:53.598Z,3.50
2023-02-02T01:26:20.862Z,3.49
2023-02-02T01:28:48.042Z,3.51
2023-02-02T01:31:16.986Z,3.35
2023-02-02T01:33:44.956Z,3.28
2023-02-02T01:36:14.015Z,3.19
2023-02-02T01:38:42.448Z,3.15
2023-02-02T01:41:12.547Z,3.13
2023-02-02T01:43:46.072Z,3.10
2023-02-02T01:46:18.722Z,2.99
2023-02-02T01:48:47.925Z,2.88
2023-02-02T01:51:17.451Z,2.85
2023-02-02T01:53:46.492Z,2.94
2023-02-02T01:56:16.665Z,2.87
2023-02-02T01:58:45.173Z,2.89
2023-02-02T02:01:13.332Z,2.82
2023-02-02T02:03:41.291Z,2.84
2023-02-02T02:06:11.281Z,2.79
2023-02-02T02:08:49.650Z,2.84
2023-02-02T02:11:18.581Z,2.77
2023-02-02T02:14:04.893Z,2.73
2023-02-02T02:16:50.504Z,2.65
2023-02-02T02:19:36.304Z,2.63
2023-02-02T02:22:40.508Z,2.62
2023-02-02T02:25:38.886Z,2.62
2023-02-02T02:28:06.596Z,2.49
2023-02-02T02:30:53.037Z,2.54
2023-02-02T02:33:26.300Z,2.45
2023-02-02T02:36:06.161Z,2.58
2023-02-02T02:38:39.924Z,2.50
2023-02-02T02:41:28.894Z,2.50
2023-02-02T02:44:01.392Z,2.47
2023-02-02T02:46:28.743Z,2.42
2023-02-02T02:48:58.234Z,2.45
2023-02-02T02:51:45.930Z,2.54
2023-02-02T02:54:17.492Z,2.55
2023-02-02T02:56:54.543Z,2.66
2023-02-02T02:59:25.001Z,2.64
2023-02-02T03:02:01.843Z,2.63
2023-02-02T03:04:37.332Z,2.65
2023-02-02T03:07:08.658Z,2.55
2023-02-02T03:09:38.225Z,2.49
2023-02-02T03:12:06.110Z,2.41
2023-02-02T03:14:36.778Z,2.54
2023-02-02T03:17:04.052Z,2.48
2023-02-02T03:19:31.673Z,2.37
2023-02-02T03:21:58.982Z,2.35
2023-02-02T03:24:26.259Z,2.36
2023-02-02T03:26:53.872Z,2.43
2023-02-02T03:29:21.139Z,2.41
2023-02-02T03:31:48.595Z,2.42
2023-02-02T03:34:16.190Z,2.35
2023-02-02T03:36:43.450Z,2.42
2023-02-02T03:39:10.723Z,2.38
2023-02-02T03:41:38.335Z,2.36
2023-02-02T03:44:05.600Z,2.29
2023-02-02T03:46:32.976Z,2.31
2023-02-02T03:49:00.581Z,2.35
2023-02-02T03:51:27.852Z,2.33
2023-02-02T03:53:55.100Z,2.27
2023-02-02T03:56:22.643Z,2.15
2023-02-02T03:58:50.109Z,2.13
2023-02-02T04:01:17.350Z,2.06
2023-02-02T04:03:46.326Z,2.06
2023-02-02T04:06:13.568Z,2.03
2023-02-02T04:08:40.844Z,1.93
2023-02-02T04:11:11.534Z,1.81
2023-02-02T04:13:39.970Z,1.81
2023-02-02T04:16:07.570Z,1.78
2023-02-02T04:18:34.909Z,1.72
2023-02-02T04:21:02.151Z,1.61
2023-02-02T04:23:30.653Z,1.66
2023-02-02T04:25:58.319Z,1.61
2023-02-02T04:28:26.579Z,1.59
2023-02-02T04:30:54.980Z,1.59
2023-02-02T04:33:23.443Z,1.55
2023-02-02T04:35:50.767Z,1.52
2023-02-02T04:38:18.370Z,1.47
2023-02-02T04:40:46.605Z,1.39
2023-02-02T04:43:14.113Z,1.33
2023-02-02T04:45:42.439Z,1.21
2023-02-02T04:48:09.880Z,1.24
2023-02-02T04:50:37.400Z,1.27
2023-02-02T04:53:05.047Z,1.26
2023-02-02T04:55:36.053Z,1.22
2023-02-02T04:58:03.536Z,1.17
2023-02-02T05:00:31.099Z,1.15
2023-02-02T05:02:58.405Z,1.10
2023-02-02T05:05:25.943Z,1.04
2023-02-02T05:07:53.655Z,0.99
2023-02-02T05:10:20.930Z,1.01
2023-02-02T05:12:48.221Z,0.96
2023-02-02T05:15:15.987Z,1.18
2023-02-02T05:17:43.258Z,2.73
2023-02-02T05:20:10.908Z,3.18
2023-02-02T05:22:38.694Z,4.38
2023-02-02T05:25:06.865Z,5.01
2023-02-02T05:27:34.593Z,4.81
2023-02-02T05:30:02.206Z,4.47
2023-02-02T05:32:29.906Z,3.01
2023-02-02T05:34:57.219Z,1.61
2023-02-02T05:37:24.805Z,1.47
2023-02-02T05:39:53.713Z,1.53
2023-02-02T05:42:20.964Z,1.37
2023-02-02T05:44:48.506Z,1.31
2023-02-02T05:47:15.965Z,1.15
2023-02-02T05:49:43.194Z,1.10
2023-02-02T05:52:15.559Z,1.03
2023-02-02T05:54:42.819Z,1.04
2023-02-02T05:57:10.119Z,0.98
2023-02-02T05:59:37.745Z,0.88
2023-02-02T06:02:05.053Z,0.92
2023-02-02T06:04:32.589Z,0.85
2023-02-02T06:06:59.932Z,0.84
2023-02-02T06:09:27.209Z,0.83
2023-02-02T06:11:54.756Z,0.85
2023-02-02T06:14:22.028Z,0.82
2023-02-02T06:16:49.276Z,0.83
2023-02-02T06:19:16.874Z,0.78
2023-02-02T06:21:44.239Z,0.81
2023-02-02T06:24:11.501Z,0.77
2023-02-02T06:26:39.119Z,0.80
2023-02-02T06:29:06.915Z,0.79
2023-02-02T06:31:34.504Z,0.85
2023-02-02T06:34:02.162Z,0.85
2023-02-02T06:36:29.359Z,0.88
2023-02-02T06:38:57.323Z,0.90
2023-02-02T06:41:24.921Z,0.89
2023-02-02T06:43:52.149Z,0.92
2023-02-02T06:46:19.457Z,0.93
2023-02-02T06:48:46.974Z,0.91
2023-02-02T06:51:14.451Z,0.91
2023-02-02T06:53:41.610Z,0.94
2023-02-02T06:56:12.113Z,0.90
2023-02-02T06:58:39.410Z,1.00
2023-02-02T07:01:10.809Z,0.97
2023-02-02T07:03:38.677Z,1.05
2023-02-02T07:06:16.440Z,1.05
2023-02-02T07:08:44.282Z,1.15
2023-02-02T07:11:15.896Z,1.19
2023-02-02T07:13:44.737Z,1.22
2023-02-02T07:16:15.164Z,1.17
2023-02-02T07:18:47.572Z,1.28
2023-02-02T07:21:17.148Z,1.38
2023-02-02T07:23:44.373Z,1.43
2023-02-02T07:26:12.400Z,1.49
2023-02-02T07:28:39.965Z,1.52
2023-02-02T07:31:18.018Z,1.53
2023-02-02T07:33:46.112Z,1.48
2023-02-02T07:36:16.209Z,1.60
2023-02-02T07:38:43.799Z,1.67
2023-02-02T07:41:11.732Z,1.66
2023-02-02T07:43:39.344Z,1.64
2023-02-02T07:46:09.916Z,1.74
2023-02-02T07:48:37.657Z,1.77
2023-02-02T07:51:06.291Z,1.87
2023-02-02T07:53:34.080Z,1.96
2023-02-02T07:56:09.106Z,2.02
2023-02-02T07:58:37.005Z,2.03
2023-02-02T08:01:05.808Z,2.13
2023-02-02T08:03:34.113Z,2.19
2023-02-02T08:06:01.720Z,2.25
2023-02-02T08:08:28.999Z,2.35
2023-02-02T08:10:56.566Z,2.45
2023-02-02T08:13:23.846Z,2.55
2023-02-02T08:15:51.198Z,2.54
2023-02-02T08:18:18.849Z,2.56
2023-02-02T08:20:46.295Z,2.66
2023-02-02T08:23:15.935Z,2.64
2023-02-02T08:25:43.545Z,2.64
2023-02-02T08:28:10.847Z,2.69
2023-02-02T08:30:38.015Z,2.71
2023-02-02T08:33:05.606Z,2.82
2023-02-02T08:35:32.856Z,2.96
2023-02-02T08:38:02.990Z,3.15
2023-02-02T08:40:30.600Z,3.29
2023-02-02T08:42:57.839Z,3.40
2023-02-02T08:46:01.351Z,3.63
2023-02-02T08:48:14.430Z,3.79
2023-02-02T08:50:41.707Z,3.96
2023-02-02T08:53:08.983Z,4.10
2023-02-02T08:55:36.597Z,4.16
2023-02-02T08:58:03.872Z,4.20
2023-02-02T09:00:31.176Z,4.27
2023-02-02T09:02:58.769Z,4.37
2023-02-02T09:05:26.446Z,4.43
2023-02-02T09:07:54.021Z,4.55
2023-02-02T09:10:21.716Z,4.53
2023-02-02T09:12:49.004Z,4.58
2023-02-02T09:15:16.294Z,4.54
2023-02-02T09:17:43.849Z,4.67
2023-02-02T09:20:11.465Z,4.62
2023-02-02T09:22:38.725Z,4.64
2023-02-02T09:25:06.369Z,4.76
2023-02-02T09:27:37.264Z,4.81
2023-02-02T09:30:04.688Z,4.84
2023-02-02T09:32:32.272Z,4.87
2023-02-02T09:35:00.389Z,4.85
2023-02-02T09:37:27.683Z,4.71
2023-02-02T09:39:56.170Z,4.74
2023-02-02T09:42:38.356Z,4.89
2023-02-02T09:45:24.450Z,4.96
2023-02-02T09:47:53.609Z,5.13
2023-02-02T09:50:27.470Z,5.30
2023-02-02T09:53:13.532Z,5.43
2023-02-02T09:55:46.067Z,5.29
2023-02-02T09:58:19.240Z,5.04
2023-02-02T10:00:51.245Z,5.23
2023-02-02T10:03:24.684Z,5.50
2023-02-02T10:05:55.932Z,5.53
2023-02-02T10:08:52.786Z,5.66
2023-02-02T10:11:25.847Z,5.92
2023-02-02T10:13:56.377Z,6.24
2023-02-02T10:16:24.533Z,6.43
2023-02-02T10:19:01.432Z,6.45
2023-02-02T10:21:55.070Z,6.58
2023-02-02T10:24:24.054Z,6.59
2023-02-02T10:26:56.554Z,6.69
2023-02-02T10:29:23.844Z,6.75
2023-02-02T10:31:57.296Z,6.88
2023-02-02T10:34:40.520Z,6.76
2023-02-02T10:37:14.147Z,6.70
2023-02-02T10:39:57.178Z,6.60
2023-02-02T10:42:45.478Z,6.39
2023-02-02T10:45:18.283Z,6.61
2023-02-02T10:47:45.824Z,6.91
2023-02-02T10:50:13.584Z,7.10
2023-02-02T10:52:43.999Z,7.02
2023-02-02T10:55:14.183Z,7.01
2023-02-02T10:58:01.434Z,6.85
2023-02-02T11:00:47.504Z,6.74
2023-02-02T11:03:16.331Z,6.76
2023-02-02T11:06:02.386Z,6.80
2023-02-02T11:08:41.277Z,6.90
2023-02-02T11:11:11.516Z,6.95
2023-02-02T11:13:45.383Z,6.79
2023-02-02T11:16:15.601Z,6.88
2023-02-02T11:18:44.264Z,6.89
2023-02-02T11:21:23.691Z,7.00
2023-02-02T11:23:55.484Z,6.96
2023-02-02T11:26:24.400Z,6.94
2023-02-02T11:28:53.829Z,6.76
2023-02-02T11:31:37.665Z,6.60
2023-02-02T11:34:25.443Z,6.55
2023-02-02T11:37:01.566Z,6.44
2023-02-02T11:39:29.568Z,6.38
2023-02-02T11:42:16.789Z,6.25
2023-02-02T11:44:48.863Z,6.16
2023-02-02T11:47:22.893Z,6.08
2023-02-02T11:49:52.421Z,6.15
2023-02-02T11:52:24.835Z,6.13
2023-02-02T11:54:55.104Z,6.22
2023-02-02T11:57:23.487Z,6.23
2023-02-02T11:59:52.255Z,6.18
2023-02-02T12:02:19.957Z,6.06
2023-02-02T12:04:48.428Z,5.94
2023-02-02T12:07:28.140Z,5.90
2023-02-02T12:10:04.864Z,5.95
2023-02-02T12:12:50.982Z,5.86
2023-02-02T12:15:46.111Z,5.75
2023-02-02T12:18:16.097Z,5.82
2023-02-02T12:20:55.914Z,5.93
2023-02-02T12:23:23.105Z,6.05
2023-02-02T12:26:02.923Z,6.07
2023-02-02T12:28:33.268Z,6.02
2023-02-02T12:31:09.823Z,6.19
2023-02-02T12:33:37.096Z,6.27
2023-02-02T12:36:16.601Z,6.31
2023-02-02T12:38:55.377Z,6.34
2023-02-02T12:41:42.367Z,6.29
2023-02-02T12:44:09.641Z,6.25
2023-02-02T12:46:55.973Z,6.12
2023-02-02T12:49:26.245Z,6.01
2023-02-02T12:52:08.186Z,6.02
2023-02-02T12:54:44.365Z,5.99
2023-02-02T12:57:33.474Z,5.98
2023-02-02T13:00:13.495Z,5.83
2023-02-02T13:02:59.624Z,5.99
2023-02-02T13:05:38.444Z,6.16
2023-02-02T13:08:21.504Z,6.18
2023-02-02T13:10:54.053Z,6.07
2023-02-02T13:13:27.367Z,6.06
2023-02-02T13:16:00.195Z,6.10
2023-02-02T13:18:30.431Z,6.07
2023-02-02T13:21:00.484Z,5.89
2023-02-02T13:23:32.588Z,5.90
2023-02-02T13:25:59.794Z,5.83
2023-02-02T13:28:33.176Z,5.76
2023-02-02T13:31:05.414Z,5.83
2023-02-02T13:33:35.900Z,5.83
2023-02-02T13:36:10.136Z,5.79
2023-02-02T13:38:42.182Z,5.71
2023-02-02T13:41:14.582Z,5.77
2023-02-02T13:43:50.975Z,5.67
2023-02-02T13:46:21.359Z,5.64
2023-02-02T13:48:54.988Z,5.64
2023-02-02T13:51:30.461Z,5.57
2023-02-02T13:54:12.003Z,5.58
2023-02-02T13:56:45.767Z,5.50
2023-02-02T13:59:31.703Z,5.46
2023-02-02T14:01:59.589Z,5.44
2023-02-02T14:04:31.196Z,5.43
2023-02-02T14:07:06.943Z,5.43
2023-02-02T14:09:37.389Z,5.39
2023-02-02T14:12:08.917Z,5.31
2023-02-02T14:14:38.933Z,5.26
2023-02-02T14:17:26.520Z,5.20
2023-02-02T14:20:17.229Z,5.13
2023-02-02T14:22:44.688Z,5.04
2023-02-02T14:25:33.498Z,5.15
2023-02-02T14:28:01.615Z,5.12
2023-02-02T14:30:32.669Z,5.13
2023-02-02T14:33:18.422Z,5.22
2023-02-02T14:35:45.944Z,5.09
2023-02-02T14:38:30.102Z,5.03
2023-02-02T14:41:36.347Z,5.01
2023-02-02T14:44:05.113Z,4.97
2023-02-02T14:46:34.830Z,4.83
2023-02-02T14:49:02.184Z,4.85
2023-02-02T14:51:31.222Z,4.71
2023-02-02T14:54:03.475Z,4.59
2023-02-02T14:56:39.631Z,4.55
2023-02-02T14:59:16.083Z,4.41
2023-02-02T15:01:44.645Z,4.31
2023-02-02T15:04:21.433Z,4.26
2023-02-02T15:06:49.311Z,4.16
2023-02-02T15:09:19.988Z,4.20
2023-02-02T15:12:01.079Z,4.15
2023-02-02T15:14:31.837Z,4.09
2023-02-02T15:17:03.239Z,4.03
2023-02-02T15:19:34.327Z,3.93
2023-02-02T15:22:06.957Z,3.93
2023-02-02T15:24:36.123Z,3.85
2023-02-02T15:27:04.704Z,3.80
2023-02-02T15:29:31.954Z,3.77
2023-02-02T15:32:00.503Z,3.67
2023-02-02T15:34:39.056Z,3.64
2023-02-02T15:37:08.442Z,3.54
2023-02-02T15:39:41.852Z,3.55
2023-02-02T15:42:33.791Z,3.44
2023-02-02T15:45:01.084Z,3.33
2023-02-02T15:47:33.651Z,3.38
2023-02-02T15:50:01.625Z,3.37
2023-02-02T15:52:33.071Z,3.35
2023-02-02T15:55:00.458Z,3.29
2023-02-02T15:57:35.710Z,3.23
2023-02-02T16:00:23.564Z,3.20
2023-02-02T16:02:54.259Z,3.18
2023-02-02T16:05:36.592Z,3.12
2023-02-02T16:08:11.899Z,3.08
2023-02-02T16:10:39.253Z,3.09
2023-02-02T16:13:06.924Z,3.08
2023-02-02T16:15:34.290Z,3.02
2023-02-02T16:18:15.377Z,3.03
2023-02-02T16:20:43.162Z,3.05
2023-02-02T16:23:16.257Z,3.03
2023-02-02T16:25:48.448Z,3.00
2023-02-02T16:28:17.764Z,2.93
2023-02-02T16:30:45.684Z,2.88
2023-02-02T16:33:28.224Z,2.91
2023-02-02T16:35:56.030Z,2.89
2023-02-02T16:38:24.918Z,2.83
2023-02-02T16:41:11.813Z,2.86
2023-02-02T16:43:40.290Z,2.83
2023-02-02T16:46:08.700Z,2.86
2023-02-02T16:48:37.113Z,2.77
2023-02-02T16:51:04.943Z,2.75
2023-02-02T16:53:32.231Z,2.71
2023-02-02T16:55:59.463Z,2.71
2023-02-02T16:58:27.479Z,2.67
2023-02-02T17:01:13.507Z,2.68
2023-02-02T17:03:47.613Z,2.69
2023-02-02T17:06:14.938Z,2.64
2023-02-02T17:08:42.563Z,2.64
2023-02-02T17:11:21.848Z,2.56
2023-02-02T17:13:50.934Z,2.66
2023-02-02T17:16:20.046Z,2.52
2023-02-02T17:18:47.888Z,2.55
2023-02-02T17:21:18.003Z,2.50
2023-02-02T17:23:45.383Z,2.51
2023-02-02T17:26:12.843Z,2.53
2023-02-02T17:28:41.299Z,2.61
2023-02-02T17:31:10.002Z,2.59
2023-02-02T17:33:38.050Z,2.71
2023-02-02T17:36:06.075Z,2.69
2023-02-02T17:38:33.442Z,2.66
2023-02-02T17:41:02.126Z,2.64
2023-02-02T17:43:30.417Z,2.69
2023-02-02T17:45:58.038Z,2.67
2023-02-02T17:48:25.391Z,2.67
2023-02-02T17:50:52.941Z,2.64
2023-02-02T17:53:21.139Z,2.66
2023-02-02T17:55:49.934Z,2.70
2023-02-02T17:58:18.109Z,2.77
2023-02-02T18:00:46.697Z,2.78
2023-02-02T18:03:17.903Z,2.89
2023-02-02T18:05:45.344Z,2.89
2023-02-02T18:08:12.912Z,2.84
2023-02-02T18:10:41.224Z,2.82
2023-02-02T18:13:12.597Z,2.89
2023-02-02T18:15:42.881Z,2.89
2023-02-02T18:18:12.441Z,2.82
2023-02-02T18:20:46.723Z,2.82
2023-02-02T18:23:14.590Z,2.84
2023-02-02T18:25:41.958Z,2.93
2023-02-02T18:28:10.435Z,2.91
2023-02-02T18:30:38.755Z,2.82
2023-02-02T18:33:07.757Z,2.90
2023-02-02T18:35:35.409Z,2.90
2023-02-02T18:38:03.080Z,2.94
2023-02-02T18:40:30.371Z,2.90
2023-02-02T18:42:57.702Z,2.86
2023-02-02T18:45:25.637Z,2.90
2023-02-02T18:47:53.094Z,2.87
2023-02-02T18:50:22.028Z,2.80
2023-02-02T18:52:49.768Z,2.68
2023-02-02T18:55:17.152Z,2.60
2023-02-02T18:57:44.520Z,2.56
2023-02-02T19:00:12.336Z,2.49
2023-02-02T19:02:39.547Z,2.56
2023-02-02T19:05:26.097Z,2.42
2023-02-02T19:07:56.622Z,2.46
2023-02-02T19:10:25.500Z,2.42
2023-02-02T19:12:52.870Z,2.42
2023-02-02T19:15:20.713Z,2.30
2023-02-02T19:17:50.495Z,2.33
2023-02-02T19:20:21.547Z,2.38
2023-02-02T19:22:49.541Z,2.34
2023-02-02T19:25:17.546Z,2.26
2023-02-02T19:27:45.004Z,2.23
2023-02-02T19:30:18.299Z,2.25
2023-02-02T19:32:45.930Z,2.26
2023-02-02T19:35:32.099Z,2.21
2023-02-02T19:38:01.310Z,2.16
2023-02-02T19:40:29.126Z,2.17
2023-02-02T19:42:59.296Z,2.12
2023-02-02T19:45:31.461Z,2.11
2023-02-02T19:48:00.598Z,2.09
2023-02-02T19:50:32.768Z,2.09
2023-02-02T19:53:02.358Z,2.02
2023-02-02T19:55:34.891Z,2.08
2023-02-02T19:58:13.779Z,2.05
2023-02-02T20:00:44.995Z,2.04
2023-02-02T20:03:15.887Z,1.97
2023-02-02T20:05:44.989Z,1.97
2023-02-02T20:08:20.904Z,1.93
2023-02-02T20:10:48.310Z,1.90
2023-02-02T20:13:16.141Z,1.87
2023-02-02T20:15:43.544Z,1.87
2023-02-02T20:18:17.188Z,1.83
2023-02-02T20:20:47.580Z,1.84
2023-02-02T20:23:27.173Z,1.87
2023-02-02T20:25:55.300Z,1.81
2023-02-02T20:28:31.389Z,1.79
2023-02-02T20:30:59.022Z,1.78
2023-02-02T20:33:27.440Z,1.77
2023-02-02T20:35:55.070Z,1.83
2023-02-02T20:38:24.649Z,1.76
2023-02-02T20:40:53.231Z,1.73
2023-02-02T20:43:21.149Z,1.67
2023-02-02T20:45:49.111Z,1.62
2023-02-02T20:48:16.488Z,1.66
2023-02-02T20:50:44.174Z,1.65
2023-02-02T20:53:14.758Z,1.68
2023-02-02T20:55:42.831Z,1.66
2023-02-02T20:58:11.372Z,1.62
2023-02-02T21:00:39.366Z,1.57
2023-02-02T21:03:06.653Z,1.61
2023-02-02T21:05:34.005Z,1.62
2023-02-02T21:08:01.552Z,1.54
2023-02-02T21:10:29.055Z,1.49
2023-02-02T21:12:56.554Z,1.55
2023-02-02T21:15:25.610Z,1.57
2023-02-02T21:17:53.114Z,1.61
2023-02-02T21:20:20.469Z,1.60
2023-02-02T21:22:48.382Z,1.63
2023-02-02T21:25:15.707Z,1.62
2023-02-02T21:27:44.551Z,1.66
2023-02-02T21:30:13.185Z,1.54
2023-02-02T21:32:40.453Z,1.47
2023-02-02T21:35:07.880Z,1.47
2023-02-02T21:37:36.742Z,1.46
2023-02-02T21:40:12.160Z,1.41
2023-02-02T21:42:43.864Z,1.34
2023-02-02T21:45:20.186Z,1.52
2023-02-02T21:47:51.438Z,1.45
2023-02-02T21:50:20.127Z,1.41
2023-02-02T21:52:47.754Z,1.42
2023-02-02T21:55:35.570Z,1.34
2023-02-02T21:58:12.393Z,1.36
2023-02-02T22:00:39.647Z,1.34
2023-02-02T22:03:22.582Z,1.32
2023-02-02T22:05:49.857Z,1.28
2023-02-02T22:08:20.726Z,1.30
2023-02-02T22:10:49.179Z,1.26
2023-02-02T22:13:20.855Z,1.26
2023-02-02T22:15:49.265Z,1.29
2023-02-02T22:18:18.851Z,1.15
2023-02-02T22:20:48.021Z,1.13
2023-02-02T22:23:16.593Z,1.16
2023-02-02T22:25:45.400Z,1.23
2023-02-02T22:28:12.596Z,1.17
2023-02-02T22:30:41.001Z,1.17
2023-02-02T22:33:09.832Z,1.18
2023-02-02T22:35:37.418Z,1.08
2023-02-02T22:38:05.104Z,1.12
2023-02-02T22:40:32.674Z,1.13
2023-02-02T22:43:01.392Z,1.13
2023-02-02T22:45:28.699Z,1.02
2023-02-02T22:47:56.253Z,1.00
2023-02-02T22:50:25.304Z,1.02
2023-02-02T22:52:52.858Z,1.00
2023-02-02T22:55:20.560Z,0.97
2023-02-02T22:57:48.039Z,0.92
2023-02-02T23:00:16.871Z,0.96
2023-02-02T23:02:44.508Z,0.99
2023-02-02T23:05:13.307Z,0.94
2023-02-02T23:07:43.932Z,0.88
2023-02-02T23:10:13.184Z,0.94
2023-02-02T23:12:41.018Z,0.95
2023-02-02T23:15:08.940Z,1.00
2023-02-02T23:17:36.514Z,1.02
2023-02-02T23:20:05.273Z,0.99
2023-02-02T23:22:32.627Z,1.09
2023-02-02T23:25:00.180Z,1.04
2023-02-02T23:27:27.753Z,1.01
2023-02-02T23:29:54.979Z,0.98
2023-02-02T23:32:22.557Z,1.00
2023-02-02T23:34:49.817Z,1.02
2023-02-02T23:37:17.113Z,1.00
2023-02-02T23:39:44.764Z,1.04
2023-02-02T23:42:12.031Z,1.06
2023-02-02T23:44:39.280Z,1.04
2023-02-02T23:47:06.853Z,1.04
2023-02-02T23:49:34.421Z,1.01
2023-02-02T23:52:02.172Z,0.94
2023-02-02T23:54:30.277Z,0.92
2023-02-02T23:56:57.603Z,0.90
2023-02-02T23:59:25.098Z,0.93
